createdAt,value
2016-04-08T00:00:03.443Z,7.93
2016-04-08T00:01:03.430Z,7.87
2016-04-08T00:02:03.448Z,7.9
2016-04-08T00:03:03.451Z,7.85
2016-04-08T00:04:03.407Z,7.93
2016-04-08T00:05:03.426Z,7.93
2016-04-08T00:06:03.396Z,7.91
2016-04-08T00:07:03.399Z,7.88
2016-04-08T00:08:03.402Z,7.8
2016-04-08T00:09:03.405Z,7.85
2016-04-08T00:10:03.392Z,7.85
2016-04-08T00:11:03.379Z,7.75
2016-04-08T00:12:03.382Z,7.82
2016-04-08T00:13:03.510Z,7.93
2016-04-08T00:14:03.219Z,7.77
2016-04-08T00:15:03.394Z,7.93
2016-04-08T00:16:03.396Z,7.83
2016-04-08T00:17:03.384Z,7.91
2016-04-08T00:18:03.387Z,7.83
2016-04-08T00:19:03.390Z,7.82
2016-04-08T00:20:06.595Z,7.8
2016-04-08T00:21:03.379Z,7.87
2016-04-08T00:22:03.398Z,7.79
2016-04-08T00:23:03.368Z,7.88
2016-04-08T00:24:03.371Z,7.97
2016-04-08T00:25:03.342Z,7.9
2016-04-08T00:26:03.361Z,7.82
2016-04-08T00:27:03.348Z,7.82
2016-04-08T00:28:03.366Z,7.91
2016-04-08T00:29:03.337Z,7.94
2016-04-08T00:30:03.355Z,7.95
2016-04-08T00:31:03.358Z,7.94
2016-04-08T00:32:03.330Z,7.88
2016-04-08T00:33:03.332Z,7.94
2016-04-08T00:34:03.367Z,7.83
2016-04-08T00:35:03.353Z,7.95
2016-04-08T00:36:03.403Z,7.87
2016-04-08T00:37:03.328Z,7.85
2016-04-08T00:38:03.346Z,7.91
2016-04-08T00:39:03.333Z,7.91
2016-04-08T00:40:03.336Z,7.82
2016-04-08T00:41:03.338Z,7.93
2016-04-08T00:42:03.357Z,7.94
2016-04-08T00:43:03.359Z,7.91
2016-04-08T00:44:03.299Z,8
2016-04-08T00:45:03.318Z,7.91
2016-04-08T00:46:03.336Z,7.88
2016-04-08T00:47:03.292Z,7.88
2016-04-08T00:48:03.310Z,7.94
2016-04-08T00:49:03.313Z,7.88
2016-04-08T00:50:03.285Z,7.95
2016-04-08T00:51:03.287Z,7.9
2016-04-08T00:52:03.290Z,7.94
2016-04-08T00:53:03.323Z,7.88
2016-04-08T00:54:03.295Z,7.87
2016-04-08T00:55:03.282Z,7.98
2016-04-08T00:56:03.284Z,7.91
2016-04-08T00:57:03.304Z,7.94
2016-04-08T00:58:03.290Z,7.93
2016-04-08T00:59:03.262Z,7.83
2016-04-08T01:00:03.280Z,7.88
2016-04-08T01:01:03.267Z,7.79
2016-04-08T01:02:03.270Z,7.76
2016-04-08T01:03:03.272Z,7.88
2016-04-08T01:04:03.275Z,7.76
2016-04-08T01:05:03.263Z,7.82
2016-04-08T01:06:03.265Z,7.77
2016-04-08T01:07:03.268Z,7.8
2016-04-08T01:08:03.255Z,7.79
2016-04-08T01:09:03.241Z,7.75
2016-04-08T01:10:03.245Z,7.8
2016-04-08T01:11:03.263Z,7.8
2016-04-08T01:12:03.235Z,7.76
2016-04-08T01:13:03.144Z,7.76
2016-04-08T01:14:03.255Z,7.82
2016-04-08T01:15:03.227Z,7.76
2016-04-08T01:16:03.229Z,7.7
2016-04-08T01:17:03.263Z,7.69
2016-04-08T01:18:03.219Z,7.6
2016-04-08T01:19:03.221Z,7.67
2016-04-08T01:20:03.224Z,7.6
2016-04-08T01:21:03.242Z,7.51
2016-04-08T01:22:03.229Z,7.51
2016-04-08T01:23:03.201Z,7.57
2016-04-08T01:24:03.204Z,7.48
2016-04-08T01:25:03.223Z,7.51
2016-04-08T01:26:03.209Z,7.4
2016-04-08T01:27:03.181Z,7.43
2016-04-08T01:28:03.308Z,7.4
2016-04-08T01:29:03.217Z,7.42
2016-04-08T01:30:03.220Z,7.29
2016-04-08T01:31:03.222Z,7.36
2016-04-08T01:32:03.210Z,7.33
2016-04-08T01:33:03.181Z,7.31
2016-04-08T01:34:03.200Z,7.29
2016-04-08T01:35:03.187Z,7.25
2016-04-08T01:36:03.175Z,7.25
2016-04-08T01:37:03.192Z,7.24
2016-04-08T01:38:03.180Z,7.15
2016-04-08T01:39:03.182Z,7.17
2016-04-08T01:40:03.153Z,7.14
2016-04-08T01:41:03.188Z,7.1
2016-04-08T01:42:03.158Z,7.07
2016-04-08T01:43:03.224Z,7.07
2016-04-08T01:44:03.179Z,7.06
2016-04-08T01:45:03.182Z,7.13
2016-04-08T01:46:03.154Z,7.07
2016-04-08T01:47:03.141Z,7.06
2016-04-08T01:48:03.160Z,7.02
2016-04-08T01:49:03.162Z,7.06
2016-04-08T01:50:03.165Z,7.03
2016-04-08T01:51:03.136Z,6.96
2016-04-08T01:52:03.123Z,6.88
2016-04-08T01:53:03.142Z,6.93
2016-04-08T01:54:03.128Z,6.92
2016-04-08T01:55:03.147Z,6.93
2016-04-08T01:56:03.133Z,6.93
2016-04-08T01:57:03.120Z,6.93
2016-04-08T01:58:03.123Z,6.92
2016-04-08T01:59:03.142Z,6.89
2016-04-08T02:00:03.098Z,6.92
2016-04-08T02:01:03.100Z,6.93
2016-04-08T02:02:03.119Z,6.92
2016-04-08T02:03:03.090Z,6.93
2016-04-08T02:04:03.125Z,6.95
2016-04-08T02:05:03.080Z,6.93
2016-04-08T02:06:03.114Z,6.89
2016-04-08T02:07:03.132Z,6.93
2016-04-08T02:08:03.086Z,6.89
2016-04-08T02:09:03.089Z,6.87
2016-04-08T02:10:03.076Z,6.92
2016-04-08T02:11:03.079Z,6.88
2016-04-08T02:12:03.097Z,6.92
2016-04-08T02:13:03.131Z,6.89
2016-04-08T02:14:03.071Z,6.88
2016-04-08T02:15:03.074Z,6.74
2016-04-08T02:16:03.045Z,6.87
2016-04-08T02:17:03.063Z,6.85
2016-04-08T02:18:03.066Z,6.82
2016-04-08T02:19:03.068Z,6.85
2016-04-08T02:20:03.087Z,6.87
2016-04-08T02:21:03.058Z,6.81
2016-04-08T02:22:03.060Z,6.7
2016-04-08T02:23:03.063Z,6.7
2016-04-08T02:24:03.082Z,6.69
2016-04-08T02:25:03.038Z,6.79
2016-04-08T02:26:03.025Z,6.7
2016-04-08T02:27:03.044Z,6.75
2016-04-08T02:28:03.030Z,6.67
2016-04-08T02:29:03.033Z,6.77
2016-04-08T02:30:03.020Z,6.74
2016-04-08T02:31:03.023Z,6.67
2016-04-08T02:32:03.025Z,6.72
2016-04-08T02:33:03.012Z,6.72
2016-04-08T02:34:03.000Z,6.6
2016-04-08T02:35:03.018Z,6.63
2016-04-08T02:36:03.021Z,6.62
2016-04-08T02:37:03.008Z,6.59
2016-04-08T02:38:03.011Z,6.45
2016-04-08T02:39:02.998Z,6.56
2016-04-08T02:40:02.984Z,6.49
2016-04-08T02:41:02.987Z,6.52
2016-04-08T02:42:02.989Z,6.42
2016-04-08T02:43:02.992Z,6.46
2016-04-08T02:44:02.995Z,6.51
2016-04-08T02:45:02.982Z,6.44
2016-04-08T02:46:02.969Z,6.41
2016-04-08T02:47:02.972Z,6.35
2016-04-08T02:48:02.959Z,6.39
2016-04-08T02:49:02.977Z,6.35
2016-04-08T02:50:02.980Z,6.31
2016-04-08T02:51:02.983Z,6.36
2016-04-08T02:52:02.955Z,6.38
2016-04-08T02:53:02.957Z,6.27
2016-04-08T02:54:02.960Z,6.24
2016-04-08T02:55:02.963Z,6.28
2016-04-08T02:56:02.965Z,6.31
2016-04-08T02:57:02.952Z,6.26
2016-04-08T02:58:02.939Z,6.24
2016-04-08T02:59:02.957Z,6.26
2016-04-08T03:00:02.945Z,6.3
2016-04-08T03:01:02.948Z,6.22
2016-04-08T03:02:02.919Z,6.26
2016-04-08T03:03:02.921Z,6.24
2016-04-08T03:04:02.940Z,6.26
2016-04-08T03:05:02.911Z,6.14
2016-04-08T03:06:02.914Z,6.09
2016-04-08T03:07:02.901Z,6.14
2016-04-08T03:08:02.903Z,6.11
2016-04-08T03:09:02.906Z,6.17
2016-04-08T03:10:02.939Z,6.09
2016-04-08T03:11:02.895Z,6.08
2016-04-08T03:12:02.898Z,6.14
2016-04-08T03:13:02.885Z,6.12
2016-04-08T03:14:02.889Z,6.01
2016-04-08T03:15:02.875Z,6.04
2016-04-08T03:16:02.863Z,5.97
2016-04-08T03:17:02.897Z,6.01
2016-04-08T03:18:02.852Z,5.97
2016-04-08T03:19:02.855Z,5.94
2016-04-08T03:20:02.858Z,5.97
2016-04-08T03:21:02.704Z,5.93
2016-04-08T03:22:02.847Z,5.9
2016-04-08T03:23:02.850Z,5.89
2016-04-08T03:24:02.838Z,5.84
2016-04-08T03:25:02.825Z,5.94
2016-04-08T03:26:02.843Z,5.93
2016-04-08T03:27:02.861Z,5.93
2016-04-08T03:28:02.833Z,5.93
2016-04-08T03:29:02.819Z,5.87
2016-04-08T03:30:02.822Z,5.83
2016-04-08T03:31:02.824Z,5.87
2016-04-08T03:32:02.827Z,5.86
2016-04-08T03:33:02.798Z,5.94
2016-04-08T03:34:02.801Z,5.97
2016-04-08T03:35:02.853Z,5.89
2016-04-08T03:36:02.884Z,5.91
2016-04-08T03:37:02.900Z,5.83
2016-04-08T03:38:02.946Z,5.91
2016-04-08T03:39:03.009Z,5.99
2016-04-08T03:40:03.018Z,5.94
2016-04-08T03:41:03.052Z,5.93
2016-04-08T03:42:03.038Z,5.87
2016-04-08T03:43:03.073Z,5.93
2016-04-08T03:44:03.075Z,5.99
2016-04-08T03:45:03.102Z,5.94
2016-04-08T03:46:03.063Z,5.84
2016-04-08T03:47:03.070Z,5.89
2016-04-08T03:48:03.078Z,5.89
2016-04-08T03:49:03.086Z,5.84
2016-04-08T03:50:03.076Z,5.89
2016-04-08T03:51:03.081Z,5.83
2016-04-08T03:52:03.086Z,5.87
2016-04-08T03:53:03.075Z,5.84
2016-04-08T03:54:03.080Z,5.83
2016-04-08T03:55:03.068Z,5.87
2016-04-08T03:56:03.071Z,5.93
2016-04-08T03:57:03.074Z,5.91
2016-04-08T03:58:03.063Z,5.97
2016-04-08T03:59:03.066Z,5.91
2016-04-08T04:00:03.053Z,5.93
2016-04-08T04:01:03.056Z,5.9
2016-04-08T04:02:03.044Z,5.93
2016-04-08T04:03:03.032Z,5.9
2016-04-08T04:04:03.019Z,5.94
2016-04-08T04:05:03.038Z,5.89
2016-04-08T04:06:03.040Z,5.98
2016-04-08T04:07:03.058Z,5.99
2016-04-08T04:08:03.029Z,5.91
2016-04-08T04:09:03.016Z,6.02
2016-04-08T04:10:03.019Z,6.05
2016-04-08T04:11:03.053Z,5.98
2016-04-08T04:12:03.024Z,6.09
2016-04-08T04:13:03.012Z,6.07
2016-04-08T04:14:02.998Z,6.11
2016-04-08T04:15:03.002Z,6.09
2016-04-08T04:16:03.004Z,6.09
2016-04-08T04:17:02.992Z,6.11
2016-04-08T04:18:03.010Z,6.12
2016-04-08T04:19:02.981Z,6.11
2016-04-08T04:20:02.984Z,6.09
2016-04-08T04:21:02.986Z,6.09
2016-04-08T04:22:02.958Z,6.11
2016-04-08T04:23:02.992Z,6.14
2016-04-08T04:24:02.995Z,6.14
2016-04-08T04:25:02.981Z,6.16
2016-04-08T04:26:03.000Z,6.22
2016-04-08T04:27:02.971Z,6.28
2016-04-08T04:28:02.942Z,6.26
2016-04-08T04:29:02.945Z,6.33
2016-04-08T04:30:02.948Z,6.36
2016-04-08T04:31:02.936Z,6.39
2016-04-08T04:32:02.938Z,6.41
2016-04-08T04:33:02.941Z,6.45
2016-04-08T04:34:02.943Z,6.52
2016-04-08T04:35:02.930Z,6.48
2016-04-08T04:36:02.933Z,6.46
2016-04-08T04:37:02.920Z,6.49
2016-04-08T04:38:02.938Z,6.63
2016-04-08T04:39:02.926Z,6.56
2016-04-08T04:40:02.929Z,6.52
2016-04-08T04:41:02.916Z,6.6
2016-04-08T04:42:02.918Z,6.56
2016-04-08T04:43:02.921Z,6.56
2016-04-08T04:44:02.923Z,6.59
2016-04-08T04:45:02.910Z,6.54
2016-04-08T04:46:02.898Z,6.54
2016-04-08T04:47:02.900Z,6.63
2016-04-08T04:48:02.903Z,6.56
2016-04-08T04:49:02.889Z,6.59
2016-04-08T04:50:02.876Z,6.63
2016-04-08T04:51:02.926Z,6.67
2016-04-08T04:52:02.882Z,6.52
2016-04-08T04:53:02.869Z,6.54
2016-04-08T04:54:02.857Z,6.49
2016-04-08T04:55:02.859Z,6.45
2016-04-08T04:56:02.878Z,6.54
2016-04-08T04:57:02.865Z,6.6
2016-04-08T04:58:02.852Z,6.59
2016-04-08T04:59:02.839Z,6.51
2016-04-08T05:00:02.857Z,6.63
2016-04-08T05:01:02.844Z,6.56
2016-04-08T05:02:02.816Z,6.63
2016-04-08T05:03:02.833Z,6.69
2016-04-08T05:04:02.836Z,6.69
2016-04-08T05:05:02.838Z,6.67
2016-04-08T05:06:02.841Z,6.7
2016-04-08T05:07:02.829Z,6.78
2016-04-08T05:08:02.832Z,6.72
2016-04-08T05:09:02.819Z,6.82
2016-04-08T05:10:02.805Z,6.74
2016-04-08T05:11:02.840Z,6.72
2016-04-08T05:12:02.811Z,6.72
2016-04-08T05:13:02.813Z,6.75
2016-04-08T05:14:02.895Z,6.72
2016-04-08T05:15:02.819Z,6.81
2016-04-08T05:16:02.790Z,6.74
2016-04-08T05:17:02.794Z,6.77
2016-04-08T05:18:02.796Z,6.74
2016-04-08T05:19:02.799Z,6.72
2016-04-08T05:20:02.787Z,6.87
2016-04-08T05:21:02.773Z,6.78
2016-04-08T05:22:02.776Z,6.78
2016-04-08T05:23:02.778Z,6.77
2016-04-08T05:24:02.781Z,6.89
2016-04-08T05:25:02.800Z,6.89
2016-04-08T05:26:02.770Z,6.88
2016-04-08T05:27:02.773Z,7.05
2016-04-08T05:28:02.775Z,7.02
2016-04-08T05:29:02.794Z,7.05
2016-04-08T05:30:02.766Z,7.02
2016-04-08T05:31:03.112Z,7.17
2016-04-08T05:32:02.756Z,7.21
2016-04-08T05:33:02.602Z,7.21
2016-04-08T05:34:02.745Z,7.29
2016-04-08T05:35:02.748Z,7.33
2016-04-08T05:36:02.751Z,7.36
2016-04-08T05:37:02.738Z,7.38
2016-04-08T05:38:02.741Z,7.4
2016-04-08T05:39:02.743Z,7.32
2016-04-08T05:40:02.730Z,7.35
2016-04-08T05:41:02.749Z,7.39
2016-04-08T05:42:02.735Z,7.35
2016-04-08T05:43:02.754Z,7.39
2016-04-08T05:44:03.084Z,7.43
2016-04-08T05:45:02.743Z,7.48
2016-04-08T05:46:02.715Z,7.56
2016-04-08T05:47:02.733Z,7.58
2016-04-08T05:48:02.721Z,7.7
2016-04-08T05:49:02.692Z,7.82
2016-04-08T05:50:02.757Z,7.88
2016-04-08T05:51:02.729Z,7.95
2016-04-08T05:52:02.700Z,7.93
2016-04-08T05:53:02.765Z,7.97
2016-04-08T05:54:02.705Z,8.09
2016-04-08T05:55:02.692Z,8.13
2016-04-08T05:56:02.711Z,8.03
2016-04-08T05:57:02.697Z,8.12
2016-04-08T05:58:02.700Z,8.12
2016-04-08T05:59:02.687Z,8.12
2016-04-08T06:00:02.690Z,8.2
2016-04-08T06:01:02.693Z,8.06
2016-04-08T06:02:02.680Z,8.15
2016-04-08T06:03:02.667Z,8.18
2016-04-08T06:04:02.670Z,8.2
2016-04-08T06:05:02.672Z,8.31
2016-04-08T06:06:02.675Z,8.31
2016-04-08T06:07:02.663Z,8.3
2016-04-08T06:08:02.680Z,8.34
2016-04-08T06:09:02.668Z,8.27
2016-04-08T06:10:02.654Z,8.28
2016-04-08T06:11:02.641Z,8.18
2016-04-08T06:12:02.660Z,8.13
2016-04-08T06:13:02.663Z,8.15
2016-04-08T06:14:02.774Z,8.23
2016-04-08T06:15:02.685Z,8.27
2016-04-08T06:16:02.671Z,8.28
2016-04-08T06:17:05.658Z,8.27
2016-04-08T06:18:02.660Z,8.33
2016-04-08T06:19:02.663Z,8.37
2016-04-08T06:20:02.635Z,8.41
2016-04-08T06:21:02.621Z,8.55
2016-04-08T06:22:02.687Z,8.6
2016-04-08T06:23:02.643Z,8.66
2016-04-08T06:24:02.629Z,8.7
2016-04-08T06:25:02.648Z,8.66
2016-04-08T06:26:02.603Z,8.74
2016-04-08T06:27:02.622Z,8.69
2016-04-08T06:28:02.640Z,8.71
2016-04-08T06:29:02.642Z,8.73
2016-04-08T06:30:02.630Z,8.63
2016-04-08T06:31:02.617Z,8.71
2016-04-08T06:32:02.620Z,8.58
2016-04-08T06:33:02.623Z,8.63
2016-04-08T06:34:02.642Z,8.41
2016-04-08T06:35:02.628Z,8.52
2016-04-08T06:36:02.616Z,8.53
2016-04-08T06:37:02.634Z,8.48
2016-04-08T06:38:02.622Z,8.52
2016-04-08T06:39:02.624Z,8.48
2016-04-08T06:40:01.877Z,8.58
2016-04-08T06:41:02.614Z,8.61
2016-04-08T06:42:02.616Z,8.63
2016-04-08T06:43:02.619Z,8.69
2016-04-08T06:44:02.825Z,8.78
2016-04-08T06:45:02.608Z,8.67
2016-04-08T06:46:02.611Z,8.61
2016-04-08T06:47:02.614Z,8.71
2016-04-08T06:48:02.617Z,8.7
2016-04-08T06:49:02.604Z,8.7
2016-04-08T06:50:02.607Z,8.91
2016-04-08T06:51:02.593Z,9
2016-04-08T06:52:02.596Z,9.14
2016-04-08T06:53:02.582Z,9.28
2016-04-08T06:54:02.601Z,9.39
2016-04-08T06:55:02.588Z,9.61
2016-04-08T06:56:02.607Z,9.55
2016-04-08T06:57:02.593Z,9.61
2016-04-08T06:58:02.612Z,9.84
2016-04-08T06:59:02.818Z,9.87
2016-04-08T07:00:02.602Z,9.86
2016-04-08T07:01:02.578Z,9.87
2016-04-08T07:02:02.597Z,10.02
2016-04-08T07:03:02.599Z,10.15
2016-04-08T07:04:02.586Z,10.26
2016-04-08T07:05:02.572Z,10.4
2016-04-08T07:06:02.591Z,10.31
2016-04-08T07:07:02.594Z,10.48
2016-04-08T07:08:02.613Z,10.79
2016-04-08T07:09:02.584Z,11.08
2016-04-08T07:10:02.604Z,11.32
2016-04-08T07:11:02.606Z,11.6
2016-04-08T07:12:02.593Z,11.77
2016-04-08T07:13:02.642Z,11.52
2016-04-08T07:14:02.631Z,11.43
2016-04-08T07:15:02.633Z,11.18
2016-04-08T07:16:02.651Z,11
2016-04-08T07:17:02.763Z,10.78
2016-04-08T07:18:02.766Z,10.67
2016-04-08T07:19:02.628Z,10.42
2016-04-08T07:20:02.630Z,10.34
2016-04-08T07:21:02.664Z,10.17
2016-04-08T07:22:02.651Z,9.97
2016-04-08T07:23:02.655Z,9.84
2016-04-08T07:24:02.657Z,9.86
2016-04-08T07:25:02.675Z,9.76
2016-04-08T07:26:02.647Z,9.69
2016-04-08T07:27:02.649Z,9.55
2016-04-08T07:28:02.652Z,9.64
2016-04-08T07:29:02.654Z,9.65
2016-04-08T07:30:02.658Z,9.77
2016-04-08T07:31:02.644Z,9.84
2016-04-08T07:32:02.662Z,9.65
2016-04-08T07:33:02.665Z,9.65
2016-04-08T07:34:02.652Z,9.58
2016-04-08T07:35:02.640Z,9.46
2016-04-08T07:36:02.673Z,9.43
2016-04-08T07:37:02.645Z,9.47
2016-04-08T07:38:02.648Z,9.46
2016-04-08T07:39:02.666Z,9.48
2016-04-08T07:40:02.637Z,9.48
2016-04-08T07:41:02.671Z,9.58
2016-04-08T07:42:02.628Z,9.51
2016-04-08T07:43:02.646Z,9.64
2016-04-08T07:44:02.648Z,9.61
2016-04-08T07:45:02.635Z,9.74
2016-04-08T07:46:02.669Z,9.66
2016-04-08T07:47:02.672Z,9.65
2016-04-08T07:48:02.628Z,9.66
2016-04-08T07:49:02.647Z,9.89
2016-04-08T07:50:02.665Z,10.05
2016-04-08T07:51:02.652Z,10.17
2016-04-08T07:52:02.638Z,10.2
2016-04-08T07:53:02.689Z,10.28
2016-04-08T07:54:02.675Z,10.41
2016-04-08T07:55:02.678Z,10.53
2016-04-08T07:56:02.665Z,10.57
2016-04-08T07:57:02.652Z,10.67
2016-04-08T07:58:02.655Z,10.64
2016-04-08T07:59:02.641Z,10.57
2016-04-08T08:00:02.644Z,10.57
2016-04-08T08:01:02.632Z,10.76
2016-04-08T08:02:02.649Z,10.78
2016-04-08T08:03:02.637Z,10.82
2016-04-08T08:04:02.654Z,10.87
2016-04-08T08:05:03.080Z,10.71
2016-04-08T08:06:02.645Z,10.57
2016-04-08T08:07:02.648Z,10.59
2016-04-08T08:08:02.650Z,10.51
2016-04-08T08:09:02.653Z,10.48
2016-04-08T08:10:02.640Z,10.42
2016-04-08T08:11:02.642Z,10.33
2016-04-08T08:12:02.646Z,10.23
2016-04-08T08:13:02.648Z,10.31
2016-04-08T08:14:03.245Z,10.61
2016-04-08T08:15:02.653Z,11.11
2016-04-08T08:16:02.656Z,11.59
2016-04-08T08:17:02.706Z,12.17
2016-04-08T08:18:02.645Z,12.5
2016-04-08T08:19:02.648Z,13
2016-04-08T08:20:02.651Z,13.71
2016-04-08T08:21:02.654Z,14.08
2016-04-08T08:22:02.719Z,14.14
2016-04-08T08:23:02.675Z,14.11
2016-04-08T08:24:02.678Z,14.22
2016-04-08T08:25:02.696Z,14.55
2016-04-08T08:26:02.683Z,14.88
2016-04-08T08:27:02.686Z,15.06
2016-04-08T08:28:02.673Z,15.03
2016-04-08T08:29:02.691Z,14.92
2016-04-08T08:30:02.693Z,15.17
2016-04-08T08:31:02.697Z,15.15
2016-04-08T08:32:02.699Z,14.97
2016-04-08T08:33:02.718Z,14.55
2016-04-08T08:34:02.705Z,13.83
2016-04-08T08:35:02.707Z,13.46
2016-04-08T08:36:02.710Z,12.95
2016-04-08T08:37:02.713Z,12.49
2016-04-08T08:38:02.731Z,12.04
2016-04-08T08:39:02.734Z,11.73
2016-04-08T08:40:02.736Z,11.59
2016-04-08T08:41:02.723Z,11.41
2016-04-08T08:42:02.726Z,11.3
2016-04-08T08:43:02.744Z,11.12
2016-04-08T08:44:02.747Z,11
2016-04-08T08:45:02.765Z,10.94
2016-04-08T08:46:02.753Z,10.81
2016-04-08T08:47:03.223Z,10.67
2016-04-08T08:48:02.758Z,10.48
2016-04-08T08:49:02.792Z,10.42
2016-04-08T08:50:02.763Z,10.41
2016-04-08T08:51:02.000Z,10.51
2016-04-08T08:52:02.768Z,10.48
2016-04-08T08:53:02.772Z,10.37
2016-04-08T08:54:02.774Z,10.4
2016-04-08T08:55:02.777Z,10.48
2016-04-08T08:56:02.780Z,10.57
2016-04-08T08:57:02.782Z,10.68
2016-04-08T08:58:02.785Z,10.56
2016-04-08T08:59:02.788Z,10.46
2016-04-08T09:00:02.805Z,10.38
2016-04-08T09:01:02.793Z,10.4
2016-04-08T09:02:02.795Z,10.49
2016-04-08T09:03:02.799Z,10.51
2016-04-08T09:04:02.801Z,10.51
2016-04-08T09:05:02.788Z,10.49
2016-04-08T09:06:02.807Z,10.54
2016-04-08T09:07:02.793Z,10.53
2016-04-08T09:08:02.796Z,10.54
2016-04-08T09:09:02.798Z,10.54
2016-04-08T09:10:02.802Z,10.63
2016-04-08T09:11:02.804Z,10.61
2016-04-08T09:12:02.806Z,10.63
2016-04-08T09:13:02.778Z,10.56
2016-04-08T09:14:02.781Z,10.6
2016-04-08T09:15:02.799Z,10.63
2016-04-08T09:16:02.787Z,10.71
2016-04-08T09:17:02.804Z,10.76
2016-04-08T09:18:02.791Z,10.9
2016-04-08T09:19:02.794Z,10.93
2016-04-08T09:20:02.797Z,11.11
2016-04-08T09:21:02.784Z,11.27
2016-04-08T09:22:02.802Z,11.33
2016-04-08T09:23:03.102Z,11.43
2016-04-08T09:24:02.636Z,11.33
2016-04-08T09:25:02.810Z,11.32
2016-04-08T09:26:02.642Z,11.48
2016-04-08T09:27:02.831Z,11.29
2016-04-08T09:28:02.802Z,11.37
2016-04-08T09:29:02.822Z,11.35
2016-04-08T09:30:02.793Z,11.18
2016-04-08T09:31:02.811Z,11.17
2016-04-08T09:32:02.813Z,11.29
2016-04-08T09:33:02.816Z,11.41
2016-04-08T09:34:02.804Z,11.29
2016-04-08T09:35:02.822Z,11.19
2016-04-08T09:36:02.825Z,11.05
2016-04-08T09:37:02.812Z,11.08
2016-04-08T09:38:02.814Z,11
2016-04-08T09:39:02.801Z,10.94
2016-04-08T09:40:02.820Z,10.84
2016-04-08T09:41:02.822Z,10.86
2016-04-08T09:42:02.840Z,10.87
2016-04-08T09:43:02.812Z,10.89
2016-04-08T09:44:02.814Z,10.96
2016-04-08T09:45:02.833Z,10.9
2016-04-08T09:46:02.820Z,11
2016-04-08T09:47:02.823Z,11
2016-04-08T09:48:02.825Z,11.05
2016-04-08T09:49:02.812Z,11.12
2016-04-08T09:50:02.815Z,11.3
2016-04-08T09:51:02.833Z,11.33
2016-04-08T09:52:02.820Z,11.3
2016-04-08T09:53:02.808Z,11.32
2016-04-08T09:54:02.810Z,11.32
2016-04-08T09:55:02.814Z,11.33
2016-04-08T09:56:02.831Z,11.48
2016-04-08T09:57:02.818Z,11.66
2016-04-08T09:58:02.825Z,11.7
2016-04-08T09:59:02.843Z,11.84
2016-04-08T10:00:03.112Z,12
2016-04-08T10:01:02.834Z,11.91
2016-04-08T10:02:02.820Z,11.97
2016-04-08T10:03:02.839Z,12.09
2016-04-08T10:04:02.670Z,12.04
2016-04-08T10:05:02.844Z,11.86
2016-04-08T10:06:02.831Z,11.9
2016-04-08T10:07:02.833Z,11.7
2016-04-08T10:08:02.836Z,11.66
2016-04-08T10:09:02.823Z,11.5
2016-04-08T10:10:02.825Z,11.44
2016-04-08T10:11:02.829Z,11.36
2016-04-08T10:12:02.847Z,11.4
2016-04-08T10:13:02.865Z,11.47
2016-04-08T10:14:02.836Z,11.44
2016-04-08T10:15:02.839Z,11.48
2016-04-08T10:16:02.842Z,11.5
2016-04-08T10:17:02.844Z,11.55
2016-04-08T10:18:02.847Z,11.6
2016-04-08T10:19:02.850Z,11.62
2016-04-08T10:20:02.852Z,11.83
2016-04-08T10:21:02.841Z,11.97
2016-04-08T10:22:02.843Z,12.03
2016-04-08T10:23:02.845Z,12.12
2016-04-08T10:24:02.833Z,12.18
2016-04-08T10:25:02.851Z,12.35
2016-04-08T10:26:02.838Z,12.36
2016-04-08T10:27:02.840Z,12.12
2016-04-08T10:28:02.859Z,11.99
2016-04-08T10:29:02.846Z,11.99
2016-04-08T10:30:02.912Z,11.81
2016-04-08T10:31:02.851Z,11.81
2016-04-08T10:32:02.853Z,12
2016-04-08T10:33:02.856Z,12.04
2016-04-08T10:34:02.859Z,12.24
2016-04-08T10:35:02.846Z,12.36
2016-04-08T10:36:02.864Z,12.39
2016-04-08T10:37:02.851Z,12.43
2016-04-08T10:38:02.870Z,12.4
2016-04-08T10:39:02.857Z,12.32
2016-04-08T10:40:02.859Z,12.31
2016-04-08T10:41:02.862Z,12.27
2016-04-08T10:42:02.880Z,12.15
2016-04-08T10:43:02.868Z,12.24
2016-04-08T10:44:02.870Z,12.17
2016-04-08T10:45:02.952Z,12.15
2016-04-08T10:46:02.875Z,12.12
2016-04-08T10:47:02.894Z,12.21
2016-04-08T10:48:02.881Z,12.22
2016-04-08T10:49:02.884Z,12.21
2016-04-08T10:50:02.871Z,12.15
2016-04-08T10:51:02.951Z,11.97
2016-04-08T10:52:02.939Z,12
2016-04-08T10:53:02.894Z,12.02
2016-04-08T10:54:02.882Z,12.02
2016-04-08T10:55:02.868Z,12.15
2016-04-08T10:56:02.887Z,12.2
2016-04-08T10:57:02.890Z,12.18
2016-04-08T10:58:02.893Z,12.22
2016-04-08T10:59:02.896Z,12.24
2016-04-08T11:00:02.976Z,12.24
2016-04-08T11:01:02.881Z,12.36
2016-04-08T11:02:02.901Z,12.37
2016-04-08T11:03:02.887Z,12.37
2016-04-08T11:04:02.889Z,12.22
2016-04-08T11:05:02.909Z,12.37
2016-04-08T11:06:02.911Z,12.53
2016-04-08T11:07:02.914Z,12.75
2016-04-08T11:08:02.900Z,12.8
2016-04-08T11:09:02.903Z,12.98
2016-04-08T11:10:02.922Z,13.16
2016-04-08T11:11:02.909Z,13.15
2016-04-08T11:12:02.911Z,13.25
2016-04-08T11:13:02.149Z,13.11
2016-04-08T11:14:02.916Z,12.95
2016-04-08T11:15:02.841Z,12.86
2016-04-08T11:16:02.922Z,12.78
2016-04-08T11:17:02.925Z,12.68
2016-04-08T11:18:02.913Z,12.72
2016-04-08T11:19:02.915Z,12.67
2016-04-08T11:20:02.918Z,12.65
2016-04-08T11:21:02.921Z,12.7
2016-04-08T11:22:02.923Z,12.78
2016-04-08T11:23:02.925Z,12.78
2016-04-08T11:24:02.929Z,12.78
2016-04-08T11:25:02.931Z,12.86
2016-04-08T11:26:02.933Z,12.83
2016-04-08T11:27:02.951Z,12.85
2016-04-08T11:28:02.939Z,12.85
2016-04-08T11:29:02.926Z,12.82
2016-04-08T11:30:02.960Z,12.83
2016-04-08T11:31:02.947Z,12.8
2016-04-08T11:32:02.950Z,12.87
2016-04-08T11:33:02.952Z,13
2016-04-08T11:34:02.956Z,13.03
2016-04-08T11:35:02.958Z,13.13
2016-04-08T11:36:02.976Z,13.22
2016-04-08T11:37:02.995Z,13.3
2016-04-08T11:38:02.966Z,13.33
2016-04-08T11:39:02.984Z,13.31
2016-04-08T11:40:02.956Z,13.28
2016-04-08T11:41:02.958Z,13.37
2016-04-08T11:42:03.024Z,13.47
2016-04-08T11:43:02.964Z,13.54
2016-04-08T11:44:02.966Z,13.49
2016-04-08T11:45:03.093Z,13.35
2016-04-08T11:46:02.971Z,13.49
2016-04-08T11:47:02.975Z,13.47
2016-04-08T11:48:02.993Z,13.47
2016-04-08T11:49:02.964Z,13.47
2016-04-08T11:50:02.982Z,13.47
2016-04-08T11:51:02.985Z,13.44
2016-04-08T11:52:03.004Z,13.52
2016-04-08T11:53:03.022Z,13.47
2016-04-08T11:54:03.009Z,13.57
2016-04-08T11:55:03.011Z,13.68
2016-04-08T11:56:03.015Z,13.92
2016-04-08T11:57:03.017Z,13.95
2016-04-08T11:58:03.004Z,14.11
2016-04-08T11:59:02.866Z,14.29
2016-04-08T12:00:03.025Z,14.25
2016-04-08T12:01:03.028Z,14.36
2016-04-08T12:02:03.031Z,14.37
2016-04-08T12:03:03.033Z,14.41
2016-04-08T12:04:03.036Z,14.33
2016-04-08T12:05:03.038Z,14.17
2016-04-08T12:06:03.042Z,14
2016-04-08T12:07:03.028Z,13.95
2016-04-08T12:08:02.890Z,13.86
2016-04-08T12:09:03.056Z,13.86
2016-04-08T12:10:03.058Z,13.92
2016-04-08T12:11:03.045Z,13.86
2016-04-08T12:12:03.048Z,13.77
2016-04-08T12:13:03.050Z,13.72
2016-04-08T12:14:03.053Z,13.63
2016-04-08T12:15:03.072Z,13.7
2016-04-08T12:16:03.074Z,13.83
2016-04-08T12:17:03.092Z,13.77
2016-04-08T12:18:03.064Z,13.49
2016-04-08T12:19:03.082Z,13.41
2016-04-08T12:20:03.085Z,13.38
2016-04-08T12:21:03.055Z,13.23
2016-04-08T12:22:03.090Z,13.18
2016-04-08T12:23:03.093Z,13.12
2016-04-08T12:24:03.157Z,13.18
2016-04-08T12:25:03.066Z,13.11
2016-04-08T12:26:03.101Z,13.13
2016-04-08T12:27:03.071Z,13.2
2016-04-08T12:28:03.106Z,13.25
2016-04-08T12:29:03.109Z,13.19
2016-04-08T12:30:03.079Z,13.27
2016-04-08T12:31:03.082Z,13.33
2016-04-08T12:32:03.101Z,13.52
2016-04-08T12:33:03.088Z,13.52
2016-04-08T12:34:03.090Z,13.62
2016-04-08T12:35:03.125Z,13.65
2016-04-08T12:36:03.128Z,13.63
2016-04-08T12:37:03.130Z,13.74
2016-04-08T12:38:03.133Z,13.72
2016-04-08T12:39:03.104Z,13.68
2016-04-08T12:40:03.122Z,13.67
2016-04-08T12:41:03.150Z,13.6
2016-04-08T12:42:03.193Z,13.47
2016-04-08T12:43:03.237Z,13.46
2016-04-08T12:44:03.140Z,13.62
2016-04-08T12:45:03.339Z,13.68
2016-04-08T12:46:03.357Z,13.81
2016-04-08T12:47:03.374Z,13.83
2016-04-08T12:48:03.391Z,13.89
2016-04-08T12:49:03.408Z,13.79
2016-04-08T12:50:03.410Z,13.79
2016-04-08T12:51:03.418Z,13.77
2016-04-08T12:52:03.442Z,13.77
2016-04-08T12:53:03.450Z,13.71
2016-04-08T12:54:03.458Z,13.62
2016-04-08T12:55:03.450Z,13.74
2016-04-08T12:56:03.471Z,13.83
2016-04-08T12:57:03.491Z,13.93
2016-04-08T12:58:03.464Z,14.07
2016-04-08T12:59:03.500Z,14.37
2016-04-08T13:00:03.458Z,14.48
2016-04-08T13:01:03.523Z,14.58
2016-04-08T13:02:03.496Z,14.63
2016-04-08T13:03:03.483Z,14.89
2016-04-08T13:04:03.473Z,14.89
2016-04-08T13:05:03.506Z,14.81
2016-04-08T13:06:03.493Z,14.51
2016-04-08T13:07:03.496Z,14.3
2016-04-08T13:08:03.498Z,14.14
2016-04-08T13:09:03.502Z,14.15
2016-04-08T13:10:03.504Z,13.99